Terminal Aerodrome Forecast
Issued by NWS

Home | Current Version | Previous Version | Graphics & Text | Print | Product List | Glossary On
Versions: 1 2 3 4 5 6 7 8 9 10 11 12 13 14 15 16 17 18 19 20 21 22 23
000
FTUS43 KABR 132000 AAA
TAFATY
TAF AMD
KATY 132040Z 1321/1418 01025G35KT P6SM BKN110
     FM140200 35017KT P6SM BKN200
     FM141500 34016KT P6SM BKN040=

USA.gov is the U.S. government's official web portal to all federal, state and local government web resources and services.